Time;durP1;ratioP1;P1;durP2;ratioP2;P2;SDS_P1;SDS_P2;PMS_P1;PMS_P2;Temp;Humidity;BMP_temperature;BMP_pressure;BME280_temperature;BME280_humidity;BME280_pressure;Samples;Min_cycle;Max_cycle;Signal;HPM_P1;HPM_P2
2023/03/21 00:01:52;;;;;;;12.07;8.85;;;;;;;11.80;41.08;93685.31;5009828;28;20283;-77
2023/03/21 00:04:18;;;;;;;16.70;10.32;;;;;;;11.70;41.13;93696.34;5010894;28;20045;-77
2023/03/21 00:06:43;;;;;;;19.58;11.35;;;;;;;11.53;40.39;93685.78;5007798;28;20049;-78
2023/03/21 00:09:09;;;;;;;19.83;13.48;;;;;;;11.47;41.14;93673.72;5010892;28;20091;-77
2023/03/21 00:11:34;;;;;;;36.08;23.33;;;;;;;11.40;40.70;93694.75;5009603;28;20041;-76
2023/03/21 00:14:01;;;;;;;34.92;21.08;;;;;;;11.34;40.43;93693.38;5010398;28;20038;-77
2023/03/21 00:16:29;;;;;;;35.80;21.80;;;;;;;11.33;40.76;93702.47;5006088;28;20041;-78
2023/03/21 00:18:56;;;;;;;26.75;17.80;;;;;;;11.35;40.80;93689.59;5010510;28;20087;-77
2023/03/21 00:21:27;;;;;;;39.38;25.98;;;;;;;11.27;40.98;93695.75;5009424;28;20033;-78
2023/03/21 00:23:53;;;;;;;35.97;23.52;;;;;;;11.25;41.30;93695.31;5008350;28;20024;-77
2023/03/21 00:26:21;;;;;;;28.55;21.05;;;;;;;11.26;41.35;93686.19;4991227;28;20457;-78
2023/03/21 00:28:47;;;;;;;33.50;20.55;;;;;;;11.28;41.84;93689.31;5010256;28;20045;-78
2023/03/21 00:31:12;;;;;;;28.00;17.80;;;;;;;11.28;41.96;93702.63;5009188;28;20059;-77
2023/03/21 00:33:38;;;;;;;28.55;18.65;;;;;;;11.16;41.98;93688.09;5007979;28;20544;-77
2023/03/21 00:36:05;;;;;;;25.98;16.88;;;;;;;11.29;41.87;93701.53;5009671;28;20029;-75
2023/03/21 00:38:30;;;;;;;41.80;23.08;;;;;;;11.35;41.08;93678.94;5011081;28;20112;-79
2023/03/21 00:40:56;;;;;;;31.85;20.13;;;;;;;11.34;42.25;93691.50;5006447;28;20065;-78
2023/03/21 00:43:22;;;;;;;33.30;20.75;;;;;;;11.49;42.03;93700.84;5010541;28;20514;-78
2023/03/21 00:45:50;;;;;;;28.15;18.30;;;;;;;11.39;42.03;93695.88;5007288;28;20052;-75
2023/03/21 00:48:16;;;;;;;22.95;16.40;;;;;;;11.23;41.97;93697.50;5010989;28;20029;-77
2023/03/21 00:50:45;;;;;;;32.72;17.42;;;;;;;11.19;42.37;93697.34;5007998;28;20048;-78
2023/03/21 00:53:11;;;;;;;21.70;15.75;;;;;;;11.15;42.39;93691.88;5008384;28;20040;-77
2023/03/21 00:55:37;;;;;;;21.92;15.43;;;;;;;11.02;42.42;93681.44;5009895;28;20034;-77
2023/03/21 00:58:03;;;;;;;23.15;16.23;;;;;;;11.02;42.37;93674.22;5010207;28;20498;-78
2023/03/21 01:00:29;;;;;;;21.88;14.32;;;;;;;11.14;42.70;93686.88;4990224;28;20061;-77
2023/03/21 01:02:56;;;;;;;21.48;13.63;;;;;;;10.93;42.41;93652.19;5014134;28;20370;-75
2023/03/21 01:08:13;;;;;;;16.83;11.45;;;;;;;11.00;42.45;93679.06;5012867;28;20039;-75
2023/03/21 01:10:41;;;;;;;15.50;11.55;;;;;;;10.96;42.45;93672.06;5013081;28;20699;-75
2023/03/21 01:13:08;;;;;;;20.10;11.45;;;;;;;11.02;42.81;93687.53;5013193;28;20367;-75
2023/03/21 01:15:35;;;;;;;14.68;10.98;;;;;;;10.73;42.30;93639.59;5012956;28;20091;-78
2023/03/21 01:18:00;;;;;;;15.60;10.45;;;;;;;10.97;42.34;93678.94;5013142;28;20437;-77
2023/03/21 01:20:26;;;;;;;16.88;8.75;;;;;;;10.93;42.34;93676.13;5012794;28;20092;-75
2023/03/21 01:22:52;;;;;;;13.25;9.07;;;;;;;10.83;42.29;93657.06;5012515;28;20420;-77
2023/03/21 01:25:17;;;;;;;12.45;8.55;;;;;;;10.84;42.30;93671.94;5012899;28;20060;-78
2023/03/21 01:27:42;;;;;;;12.73;9.27;;;;;;;10.81;42.31;93676.00;5011644;28;20038;-78
2023/03/21 01:30:08;;;;;;;10.40;8.27;;;;;;;10.82;42.38;93677.56;5012630;28;20091;-77
2023/03/21 01:32:34;;;;;;;11.05;7.72;;;;;;;10.78;43.03;93684.63;5012846;28;20049;-77
2023/03/21 01:34:59;;;;;;;12.68;8.00;;;;;;;10.64;42.64;93655.56;5012139;28;20229;-78
2023/03/21 01:37:25;;;;;;;11.98;8.90;;;;;;;10.55;43.14;93649.50;4993469;28;20052;-78
2023/03/21 01:39:51;;;;;;;11.02;7.40;;;;;;;10.65;43.20;93669.66;5012894;28;20038;-78
2023/03/21 01:42:16;;;;;;;11.10;7.70;;;;;;;10.76;43.10;93691.38;4994259;28;20025;-77
2023/03/21 01:44:55;;;;;;;16.45;7.68;;;;;;;10.72;43.00;93680.56;5014307;28;20049;-78
2023/03/21 01:47:20;;;;;;;11.75;7.72;;;;;;;10.68;43.26;93676.97;5010855;28;20103;-77
2023/03/21 01:49:54;;;;;;;9.07;7.13;;;;;;;10.66;42.77;93674.63;5016456;28;20026;-78
2023/03/21 01:52:25;;;;;;;11.60;6.70;;;;;;;10.64;43.23;93671.53;5010711;28;20037;-77
2023/03/21 01:54:54;;;;;;;11.75;6.82;;;;;;;10.58;43.12;93674.66;5002572;28;20160;-77
2023/03/21 01:57:31;;;;;;;11.50;7.05;;;;;;;10.43;43.03;93661.84;4999677;28;20025;-76
2023/03/21 01:59:58;;;;;;;10.05;6.80;;;;;;;10.59;42.80;93676.22;5015628;28;20132;-79
2023/03/21 02:02:30;;;;;;;14.30;7.28;;;;;;;10.59;42.92;93676.22;4993979;28;20049;-75
2023/03/21 02:04:57;;;;;;;11.93;8.25;;;;;;;10.47;42.72;93666.22;5010343;28;20148;-77
2023/03/21 02:07:34;;;;;;;9.35;6.97;;;;;;;10.37;42.64;93655.91;5013377;28;20158;-77
2023/03/21 02:10:03;;;;;;;11.48;7.18;;;;;;;10.44;42.84;93679.38;5007609;28;20042;-78
2023/03/21 02:12:30;;;;;;;10.30;7.55;;;;;;;10.50;42.73;93675.47;5004234;28;20112;-75
2023/03/21 02:14:56;;;;;;;13.20;7.75;;;;;;;10.35;42.76;93659.97;5010160;28;20029;-78
2023/03/21 02:17:33;;;;;;;12.13;8.57;;;;;;;10.42;42.80;93662.94;5000342;28;20033;-77
2023/03/21 02:20:10;;;;;;;14.88;9.30;;;;;;;10.48;42.33;93667.78;5013103;28;20513;-77
2023/03/21 02:23:10;;;;;;;11.90;8.77;;;;;;;10.44;42.68;93668.75;5011197;28;20516;-76
2023/03/21 02:25:54;;;;;;;14.98;7.93;;;;;;;10.45;42.39;93659.66;4999430;28;20164;-76
2023/03/21 02:28:35;;;;;;;13.18;7.70;;;;;;;10.23;42.85;93657.94;5013792;28;20033;-77
2023/03/21 02:31:35;;;;;;;7.95;5.60;;;;;;;9.98;42.99;93656.84;5009961;28;20033;-78
2023/03/21 02:34:38;;;;;;;12.98;6.15;;;;;;;10.01;43.37;93658.91;5012846;28;20407;-78
2023/03/21 02:37:10;;;;;;;6.38;5.07;;;;;;;10.02;42.97;93663.13;4998611;28;20121;-74
2023/03/21 02:39:35;;;;;;;8.75;6.10;;;;;;;10.04;43.07;93660.13;5010702;28;20025;-77
2023/03/21 02:42:12;;;;;;;8.48;5.70;;;;;;;10.00;43.35;93661.84;5013738;28;20877;-78
2023/03/21 02:45:08;;;;;;;11.85;5.30;;;;;;;9.92;43.81;93649.34;5011734;28;20033;-78
2023/03/21 02:47:47;;;;;;;7.93;4.90;;;;;;;9.97;43.32;93647.34;5011912;28;20152;-77
2023/03/21 02:50:30;;;;;;;7.13;5.28;;;;;;;9.77;42.96;93624.81;4999909;28;20034;-78
2023/03/21 02:52:57;;;;;;;8.38;4.82;;;;;;;9.75;42.59;93626.22;5011053;28;20045;-79
2023/03/21 02:55:29;;;;;;;6.78;4.80;;;;;;;9.86;42.44;93638.09;5012453;28;20064;-77
2023/03/21 02:57:56;;;;;;;6.88;5.13;;;;;;;9.92;42.41;93646.69;4997641;28;20033;-78
2023/03/21 03:00:26;;;;;;;7.18;4.72;;;;;;;9.91;42.28;93637.94;4998977;28;20113;-77
2023/03/21 03:02:53;;;;;;;8.13;5.28;;;;;;;9.94;42.41;93653.25;5010186;28;20025;-76
2023/03/21 03:05:24;;;;;;;8.02;4.93;;;;;;;9.92;42.55;93655.47;5010850;28;20178;-77
2023/03/21 03:07:50;;;;;;;9.02;5.18;;;;;;;10.00;42.46;93657.31;5010997;28;20534;-78
2023/03/21 03:10:33;;;;;;;6.35;5.00;;;;;;;9.88;42.91;93657.94;5013371;28;20030;-76
2023/03/21 03:13:10;;;;;;;8.18;5.20;;;;;;;9.62;42.74;93612.00;4997166;28;20525;-78
2023/03/21 03:15:44;;;;;;;6.30;5.10;;;;;;;9.95;42.74;93654.03;5000919;28;20066;-77
2023/03/21 03:18:15;;;;;;;9.23;5.88;;;;;;;9.92;42.64;93660.78;5014943;28;20456;-78
2023/03/21 03:20:50;;;;;;;10.02;5.72;;;;;;;9.89;43.10;93664.03;5010311;28;20585;-78
2023/03/21 03:23:27;;;;;;;10.25;6.63;;;;;;;9.87;43.33;93663.56;4999538;28;20697;-78
2023/03/21 03:26:27;;;;;;;11.65;6.35;;;;;;;9.89;43.84;93666.69;5012587;28;20084;-77
2023/03/21 03:29:00;;;;;;;9.55;5.80;;;;;;;9.70;44.13;93651.06;5011834;28;20565;-77
2023/03/21 03:31:32;;;;;;;10.02;6.57;;;;;;;9.76;44.07;93654.34;4995114;28;20060;-76
2023/03/21 03:34:05;;;;;;;11.10;7.47;;;;;;;9.72;44.47;93658.72;5011909;28;20052;-76
2023/03/21 03:36:37;;;;;;;12.13;6.90;;;;;;;9.67;44.52;93658.88;5009090;28;20034;-77
2023/03/21 03:39:07;;;;;;;11.23;7.97;;;;;;;9.53;44.26;93643.06;5011729;28;20205;-76
2023/03/21 03:41:39;;;;;;;13.60;6.20;;;;;;;9.64;44.86;93667.44;5010854;28;20025;-78
2023/03/21 03:44:05;;;;;;;10.27;6.15;;;;;;;9.63;44.60;93668.56;5014839;28;20560;-78
2023/03/21 03:46:48;;;;;;;11.15;6.85;;;;;;;9.65;44.52;93669.78;4993294;28;20032;-76
2023/03/21 03:49:19;;;;;;;12.02;6.93;;;;;;;9.68;44.31;93663.09;5009133;28;20855;-77
2023/03/21 03:51:57;;;;;;;12.27;6.78;;;;;;;9.73;44.27;93666.34;4994008;28;20037;-78
2023/03/21 03:54:29;;;;;;;9.02;6.10;;;;;;;9.67;44.22;93642.94;5010321;28;20718;-77
2023/03/21 03:56:55;;;;;;;10.20;6.57;;;;;;;9.57;44.29;93637.91;5011154;28;20041;-77
2023/03/21 03:59:24;;;;;;;10.70;7.65;;;;;;;9.60;44.60;93659.31;5010193;28;20034;-78
2023/03/21 04:01:49;;;;;;;10.30;7.45;;;;;;;9.44;44.25;93629.75;5009243;28;20041;-78
2023/03/21 04:04:15;;;;;;;12.18;7.72;;;;;;;9.59;44.79;93654.31;5012132;28;20057;-77
2023/03/21 04:06:50;;;;;;;10.70;6.15;;;;;;;9.44;44.68;93632.41;5008133;28;20034;-77
2023/03/21 04:09:18;;;;;;;10.93;7.90;;;;;;;9.34;45.14;93632.72;5009583;28;20148;-76
2023/03/21 04:11:43;;;;;;;12.93;5.93;;;;;;;9.31;45.05;93643.16;5010738;28;20080;-77
2023/03/21 04:14:09;;;;;;;11.00;6.25;;;;;;;9.23;45.44;93639.41;4998060;28;20114;-78
2023/03/21 04:16:34;;;;;;;11.68;7.13;;;;;;;9.29;45.44;93645.38;5009277;28;20564;-78
2023/03/21 04:19:00;;;;;;;9.98;6.85;;;;;;;9.20;45.50;93636.56;4998357;28;20129;-76
2023/03/21 04:21:27;;;;;;;9.13;6.22;;;;;;;9.24;45.67;93648.16;5009432;28;20024;-77
2023/03/21 04:23:56;;;;;;;10.63;6.43;;;;;;;9.29;45.66;93654.09;5009127;28;20493;-77
2023/03/21 04:26:22;;;;;;;9.10;7.00;;;;;;;9.13;45.49;93621.13;5009525;28;20037;-78
2023/03/21 04:28:48;;;;;;;7.28;5.45;;;;;;;9.32;45.35;93648.19;5009997;28;20441;-77
2023/03/21 04:31:16;;;;;;;12.32;7.13;;;;;;;9.31;45.30;93629.91;5010153;28;20145;-77
2023/03/21 04:33:41;;;;;;;10.50;7.20;;;;;;;9.21;45.54;93625.66;5009881;28;20025;-78
2023/03/21 04:36:08;;;;;;;11.20;6.57;;;;;;;9.19;45.50;93632.38;5008051;28;20131;-78
2023/03/21 04:38:34;;;;;;;12.45;6.93;;;;;;;9.38;45.30;93652.25;5009336;28;20116;-77
2023/03/21 04:41:00;;;;;;;8.63;6.35;;;;;;;9.43;45.04;93660.06;5009585;28;20172;-77
2023/03/21 04:43:27;;;;;;;6.68;4.68;;;;;;;9.36;44.58;93638.50;5008711;28;20120;-76
2023/03/21 04:45:53;;;;;;;9.52;4.88;;;;;;;9.49;44.06;93659.94;5008485;28;20041;-76
2023/03/21 04:48:19;;;;;;;10.02;4.95;;;;;;;9.41;44.01;93646.31;5010060;28;20501;-77
2023/03/21 04:50:45;;;;;;;7.22;5.00;;;;;;;9.49;43.96;93654.63;4990987;28;20037;-77
2023/03/21 04:53:11;;;;;;;7.18;4.95;;;;;;;9.45;44.58;93651.78;5009592;28;20040;-77
2023/03/21 04:55:37;;;;;;;7.45;5.35;;;;;;;9.34;44.34;93653.94;5008278;28;20062;-78
2023/03/21 04:58:03;;;;;;;6.70;5.13;;;;;;;9.41;44.21;93651.63;5010873;28;20544;-78
2023/03/21 05:00:29;;;;;;;8.18;4.78;;;;;;;9.42;44.24;93655.84;5007945;28;20061;-78
2023/03/21 05:02:57;;;;;;;7.85;5.07;;;;;;;9.47;44.41;93646.97;4997823;28;20160;-78
2023/03/21 05:05:23;;;;;;;10.90;5.32;;;;;;;9.47;44.47;93638.22;5007531;28;20104;-77
2023/03/21 05:07:49;;;;;;;7.13;5.63;;;;;;;9.53;44.39;93653.69;5009015;28;20064;-77
2023/03/21 05:10:15;;;;;;;11.43;5.32;;;;;;;9.58;44.53;93658.06;5008963;28;20120;-78
2023/03/21 05:12:40;;;;;;;7.68;5.00;;;;;;;9.58;44.68;93650.09;4991876;28;20022;-78
2023/03/21 05:15:07;;;;;;;7.57;5.03;;;;;;;9.67;44.56;93658.88;4997782;28;20029;-77
2023/03/21 05:17:32;;;;;;;9.35;5.85;;;;;;;9.53;45.13;93647.59;5009174;28;20125;-78
2023/03/21 05:19:58;;;;;;;10.13;6.43;;;;;;;9.68;45.58;93665.75;5010294;28;20401;-77
2023/03/21 05:22:25;;;;;;;11.63;7.45;;;;;;;9.79;45.63;93669.66;5007496;28;20140;-77
2023/03/21 05:24:54;;;;;;;10.25;7.20;;;;;;;9.74;45.49;93675.88;5008983;28;20056;-77
2023/03/21 05:27:33;;;;;;;15.15;7.00;;;;;;;9.58;45.70;93655.41;5011074;28;20181;-77
2023/03/21 05:30:07;;;;;;;12.60;6.95;;;;;;;9.70;45.71;93677.59;5008173;28;20103;-78
2023/03/21 05:32:33;;;;;;;10.33;7.10;;;;;;;9.76;45.48;93668.41;4995724;28;20045;-77
2023/03/21 05:34:58;;;;;;;11.35;7.32;;;;;;;9.72;45.58;93667.47;5008301;28;20726;-77
2023/03/21 05:37:24;;;;;;;10.63;6.20;;;;;;;9.77;45.40;93664.66;4993884;28;20916;-78
2023/03/21 05:39:49;;;;;;;9.70;6.50;;;;;;;9.89;45.65;93672.00;4995210;28;20107;-78
2023/03/21 05:42:15;;;;;;;8.63;6.85;;;;;;;9.98;46.00;93669.34;4997743;28;20029;-78
2023/03/21 05:44:41;;;;;;;9.75;7.07;;;;;;;9.80;45.83;93634.03;5008238;28;20033;-77
2023/03/21 05:47:06;;;;;;;7.35;5.72;;;;;;;9.99;45.43;93649.66;5009699;28;20033;-80
2023/03/21 05:49:31;;;;;;;11.93;7.18;;;;;;;10.13;45.36;93651.06;5011636;28;20033;-77
2023/03/21 05:51:57;;;;;;;13.07;7.60;;;;;;;9.98;45.65;93617.00;5013158;28;20120;-78
2023/03/21 05:54:22;;;;;;;20.98;8.63;;;;;;;10.29;45.66;93649.50;5013068;28;20482;-77
2023/03/21 05:56:48;;;;;;;14.40;9.20;;;;;;;10.35;45.59;93641.34;5015335;28;20072;-78
2023/03/21 05:59:13;;;;;;;11.02;7.85;;;;;;;10.47;45.63;93644.94;5010058;28;20078;-77
2023/03/21 06:01:39;;;;;;;14.13;7.85;;;;;;;10.51;46.04;93629.94;5010414;28;20152;-76
2023/03/21 06:04:04;;;;;;;13.77;7.38;;;;;;;10.71;46.04;93652.41;5014928;28;20037;-77
2023/03/21 06:06:29;;;;;;;14.75;8.65;;;;;;;10.76;46.81;93649.56;5011510;28;20025;-79
2023/03/21 06:08:55;;;;;;;15.60;8.23;;;;;;;10.98;46.24;93648.56;5014815;28;20032;-78
2023/03/21 06:11:30;;;;;;;15.15;8.75;;;;;;;10.96;47.85;93640.91;5012076;28;20056;-79
2023/03/21 06:13:55;;;;;;;19.30;8.90;;;;;;;11.02;48.77;93652.94;5015171;28;20045;-77
2023/03/21 06:16:21;;;;;;;23.55;9.98;;;;;;;11.00;49.00;93625.84;5010876;28;20056;-79
2023/03/21 06:18:46;;;;;;;21.33;10.50;;;;;;;11.08;47.84;93627.72;5012690;28;20045;-78
2023/03/21 06:21:12;;;;;;;23.35;9.30;;;;;;;11.07;47.79;93614.72;5013032;28;20093;-79
2023/03/21 06:23:38;;;;;;;12.73;8.27;;;;;;;11.29;44.87;93616.34;5011371;28;20072;-78
2023/03/21 06:26:04;;;;;;;14.48;7.35;;;;;;;11.46;43.86;93637.53;5011746;28;20052;-78
2023/03/21 06:28:29;;;;;;;10.48;7.32;;;;;;;11.51;43.76;93629.41;5014602;28;20038;-78
2023/03/21 06:30:55;;;;;;;14.48;8.43;;;;;;;11.58;43.89;93624.34;5010347;28;20037;-77
2023/03/21 06:33:20;;;;;;;14.48;9.32;;;;;;;11.70;43.41;93629.75;5014641;28;20105;-78
2023/03/21 06:35:53;;;;;;;16.50;9.63;;;;;;;11.64;43.57;93628.38;5010748;28;20740;-78
2023/03/21 06:38:19;;;;;;;24.52;11.88;;;;;;;11.41;44.56;93635.84;5013249;28;20037;-78
2023/03/21 06:40:48;;;;;;;21.50;11.43;;;;;;;11.58;44.05;93640.34;5011175;28;20496;-77
2023/03/21 06:43:17;;;;;;;16.98;10.45;;;;;;;11.60;44.18;93638.09;5013449;28;20041;-78
2023/03/21 06:45:43;;;;;;;15.20;9.68;;;;;;;11.36;43.56;93604.06;5010065;28;20516;-78
2023/03/21 06:48:09;;;;;;;25.17;11.90;;;;;;;11.62;43.01;93609.28;5013016;28;20158;-77
2023/03/21 06:50:34;;;;;;;21.23;12.07;;;;;;;11.71;42.35;93644.63;5011536;28;20037;-76
2023/03/21 06:53:00;;;;;;;24.55;13.20;;;;;;;11.54;43.26;93645.50;5013165;28;20525;-79
2023/03/21 06:55:27;;;;;;;24.88;12.23;;;;;;;11.70;43.11;93651.06;4997608;28;20040;-77
2023/03/21 06:57:54;;;;;;;19.73;11.95;;;;;;;11.73;42.05;93642.44;4993913;28;20046;-77
2023/03/21 07:00:20;;;;;;;22.25;11.48;;;;;;;11.41;42.87;93656.38;5010597;28;21107;-77
2023/03/21 07:02:46;;;;;;;22.50;12.98;;;;;;;11.69;42.30;93651.38;5013287;28;20033;-78
2023/03/21 07:05:12;;;;;;;24.15;13.00;;;;;;;11.76;42.52;93652.44;5010261;28;20025;-78
2023/03/21 07:07:38;;;;;;;21.98;14.45;;;;;;;11.76;42.94;93647.09;5011431;28;20036;-77
2023/03/21 07:10:04;;;;;;;25.15;13.88;;;;;;;12.02;41.64;93660.25;5012680;28;20033;-77
2023/03/21 07:12:33;;;;;;;25.08;13.95;;;;;;;11.62;42.78;93657.22;5009523;28;20021;-77
2023/03/21 07:14:59;;;;;;;29.67;13.52;;;;;;;11.81;42.77;93657.56;4994254;28;20032;-79
2023/03/21 07:17:25;;;;;;;24.90;13.68;;;;;;;11.96;42.13;93634.91;5012379;28;20839;-77
2023/03/21 07:19:50;;;;;;;25.75;13.73;;;;;;;11.98;41.80;93633.44;4991601;28;20612;-77
2023/03/21 07:22:16;;;;;;;20.80;12.75;;;;;;;11.50;41.92;93627.81;5011127;28;20045;-77
2023/03/21 07:24:41;;;;;;;19.95;11.88;;;;;;;11.68;41.75;93649.84;5011098;28;20041;-78
2023/03/21 07:27:07;;;;;;;26.40;12.48;;;;;;;11.27;43.27;93645.16;4993719;28;20584;-78
2023/03/21 07:29:32;;;;;;;23.25;12.90;;;;;;;11.45;42.21;93655.41;5011028;28;20049;-78
2023/03/21 07:31:58;;;;;;;19.70;11.88;;;;;;;11.08;42.88;93659.66;5010482;28;20037;-77
2023/03/21 07:34:23;;;;;;;21.75;11.80;;;;;;;11.01;43.08;93656.69;5011640;28;20054;-78
2023/03/21 07:36:49;;;;;;;26.58;12.38;;;;;;;10.67;43.30;93662.91;5009491;28;20092;-78
2023/03/21 07:39:14;;;;;;;18.92;11.40;;;;;;;10.98;43.28;93659.22;5009673;28;20422;-79
2023/03/21 07:41:40;;;;;;;20.15;12.23;;;;;;;10.93;42.78;93649.53;5009523;28;20046;-78
2023/03/21 07:44:05;;;;;;;16.13;11.93;;;;;;;11.09;42.89;93655.13;5006685;28;20812;-78
2023/03/21 07:46:30;;;;;;;20.60;12.27;;;;;;;11.49;42.02;93647.56;5006502;28;20037;-77
2023/03/21 07:48:56;;;;;;;24.20;11.68;;;;;;;11.72;41.73;93656.84;5011264;28;20113;-78
2023/03/21 07:51:21;;;;;;;19.58;11.60;;;;;;;11.82;41.65;93661.81;5009151;28;20145;-77
2023/03/21 07:53:47;;;;;;;24.58;12.65;;;;;;;12.21;41.80;93657.13;4992165;28;20045;-77
2023/03/21 07:56:13;;;;;;;26.10;11.95;;;;;;;12.38;40.29;93646.28;5007542;28;20128;-77
2023/03/21 07:58:38;;;;;;;21.45;11.50;;;;;;;12.43;40.54;93654.88;5009798;28;20056;-78
2023/03/21 08:01:04;;;;;;;21.15;11.18;;;;;;;12.42;39.96;93657.84;5006798;28;20410;-78
2023/03/21 08:03:32;;;;;;;22.40;13.10;;;;;;;12.55;40.36;93661.38;5010119;28;20021;-78
2023/03/21 08:06:00;;;;;;;24.75;14.15;;;;;;;12.27;40.44;93661.16;5009117;28;20021;-78
2023/03/21 08:08:26;;;;;;;23.58;13.88;;;;;;;12.42;39.73;93652.53;5009098;28;20033;-77
2023/03/21 08:10:51;;;;;;;26.60;14.50;;;;;;;12.62;40.41;93661.63;5009426;28;20468;-76
2023/03/21 08:13:17;;;;;;;23.83;12.02;;;;;;;12.79;38.89;93640.91;4988032;28;20605;-77
2023/03/21 08:15:42;;;;;;;18.92;12.10;;;;;;;12.88;39.60;93651.47;5010136;28;20042;-78
2023/03/21 08:18:09;;;;;;;25.08;13.70;;;;;;;13.17;38.95;93650.50;5009683;28;20022;-77
2023/03/21 08:20:35;;;;;;;25.42;13.48;;;;;;;13.10;38.53;93652.97;5008420;28;20600;-78
2023/03/21 08:23:00;;;;;;;27.27;15.60;;;;;;;13.01;38.61;93642.38;5006950;28;20093;-78
2023/03/21 08:25:26;;;;;;;27.58;14.68;;;;;;;13.13;38.76;93639.72;4972138;28;20053;-77
2023/03/21 08:27:51;;;;;;;20.42;13.23;;;;;;;13.40;38.37;93638.28;4975201;28;20053;-77
2023/03/21 08:30:20;;;;;;;25.27;14.38;;;;;;;13.38;38.65;93637.06;4974305;28;20720;-77
2023/03/21 08:32:46;;;;;;;34.22;16.02;;;;;;;13.58;39.32;93644.19;4985214;28;20081;-79
2023/03/21 08:35:14;;;;;;;29.05;16.30;;;;;;;13.33;38.16;93627.38;4958114;28;20477;-77
2023/03/21 08:37:41;;;;;;;29.65;17.27;;;;;;;13.50;37.86;93645.06;4976930;28;20057;-77
2023/03/21 08:40:12;;;;;;;20.10;13.18;;;;;;;13.47;37.57;93638.50;4974327;28;20109;-77
2023/03/21 08:42:38;;;;;;;21.05;12.35;;;;;;;13.10;37.05;93628.94;4955997;28;20025;-76
2023/03/21 08:45:05;;;;;;;21.25;12.90;;;;;;;12.86;38.32;93651.78;4976787;28;20057;-76
2023/03/21 08:47:31;;;;;;;30.30;12.90;;;;;;;12.16;38.91;93625.31;4969621;28;20141;-78
2023/03/21 08:49:57;;;;;;;29.77;13.50;;;;;;;12.30;39.07;93649.81;4965935;28;20471;-76
2023/03/21 08:52:24;;;;;;;19.88;14.00;;;;;;;12.40;38.73;93644.88;4967906;28;21658;-77
2023/03/21 08:54:50;;;;;;;28.52;12.27;;;;;;;12.67;38.58;93626.72;4956002;28;20054;-77
2023/03/21 08:57:15;;;;;;;23.98;13.65;;;;;;;13.14;38.53;93627.16;4972245;28;20022;-77
2023/03/21 08:59:41;;;;;;;28.38;14.30;;;;;;;13.44;38.04;93641.06;4969368;28;20046;-77
2023/03/21 09:02:06;;;;;;;22.02;13.50;;;;;;;13.38;37.82;93629.84;4973445;28;20486;-76
2023/03/21 09:04:32;;;;;;;34.78;14.30;;;;;;;13.45;38.12;93634.59;4961343;28;20799;-78
2023/03/21 09:07:00;;;;;;;29.55;14.70;;;;;;;13.55;37.35;93629.59;4971960;28;20042;-78
2023/03/21 09:09:27;;;;;;;35.47;13.98;;;;;;;13.69;37.34;93635.38;4956219;28;20057;-77
2023/03/21 09:11:52;;;;;;;28.02;13.68;;;;;;;13.75;36.70;93628.69;4972614;28;20907;-78
2023/03/21 09:14:18;;;;;;;24.88;12.90;;;;;;;13.91;36.62;93622.66;4974354;28;20034;-76
2023/03/21 09:16:43;;;;;;;31.27;15.45;;;;;;;13.66;36.73;93617.38;4956882;28;20500;-78
2023/03/21 09:19:09;;;;;;;34.15;14.50;;;;;;;13.74;38.04;93621.00;4982941;28;20495;-76
2023/03/21 09:21:35;;;;;;;20.58;14.20;;;;;;;13.39;37.06;93610.03;4987751;28;20093;-77
2023/03/21 09:24:01;;;;;;;24.58;15.70;;;;;;;12.83;37.79;93617.78;4993894;28;20030;-77
2023/03/21 09:26:27;;;;;;;24.05;15.75;;;;;;;12.63;38.92;93594.59;5010356;28;20041;-77
2023/03/21 09:28:54;;;;;;;27.67;14.85;;;;;;;12.06;39.36;93615.84;4994011;28;20037;-75
2023/03/21 09:31:21;;;;;;;28.55;14.48;;;;;;;12.68;38.76;93615.75;5010127;28;20059;-77
2023/03/21 09:33:48;;;;;;;25.30;14.48;;;;;;;13.02;38.73;93605.78;5002554;28;20038;-76
2023/03/21 09:36:15;;;;;;;30.13;15.02;;;;;;;12.64;39.04;93595.38;5008753;28;20037;-77
2023/03/21 09:38:44;;;;;;;24.27;13.45;;;;;;;12.66;38.31;93599.31;5011655;28;20026;-77
2023/03/21 09:41:31;;;;;;;22.02;13.70;;;;;;;12.28;39.03;93593.38;5010690;28;20779;-78
2023/03/21 09:44:31;;;;;;;19.20;12.80;;;;;;;12.36;39.23;93565.84;5009311;28;20510;-76
2023/03/21 09:47:23;;;;;;;19.13;13.20;;;;;;;12.85;38.48;93588.09;5010195;28;20561;-76
2023/03/21 09:50:03;;;;;;;27.67;14.38;;;;;;;12.92;38.37;93593.66;5009208;28;20408;-77
2023/03/21 09:52:42;;;;;;;24.13;15.00;;;;;;;12.58;38.49;93573.47;4991316;28;20038;-77
2023/03/21 09:55:17;;;;;;;27.15;15.18;;;;;;;12.99;37.98;93571.75;5008761;28;20123;-77
2023/03/21 09:57:46;;;;;;;22.55;13.13;;;;;;;13.39;37.24;93588.66;5010237;28;22453;-78
2023/03/21 10:00:24;;;;;;;26.65;13.82;;;;;;;13.25;37.22;93566.88;5011187;28;20160;-77
2023/03/21 10:02:58;;;;;;;25.42;14.02;;;;;;;13.16;37.54;93584.88;4991933;28;20041;-78
2023/03/21 10:05:25;;;;;;;28.00;15.10;;;;;;;13.30;37.17;93585.31;4998430;28;20131;-76
2023/03/21 10:08:10;;;;;;;28.52;16.65;;;;;;;13.09;37.61;93574.75;4989631;28;20512;-77
2023/03/21 10:11:05;;;;;;;21.02;13.32;;;;;;;12.71;38.33;93569.72;4992375;28;20037;-76
2023/03/21 10:13:39;;;;;;;43.95;21.65;;;;;;;12.59;38.59;93545.69;5007857;28;20053;-77
2023/03/21 10:16:36;;;;;;;29.70;16.00;;;;;;;12.72;38.39;93565.16;5006313;28;20825;-77
2023/03/21 10:19:09;;;;;;;23.52;13.80;;;;;;;13.20;37.92;93559.06;4991991;28;20096;-77
2023/03/21 10:21:38;;;;;;;28.52;14.10;;;;;;;12.77;37.70;93544.38;4998666;28;20041;-77
2023/03/21 10:24:05;;;;;;;20.20;11.60;;;;;;;12.59;37.63;93551.03;5009863;28;20105;-78
2023/03/21 10:26:31;;;;;;;31.45;13.80;;;;;;;12.72;37.97;93560.59;5009425;28;20045;-77
2023/03/21 10:29:01;;;;;;;26.00;11.93;;;;;;;12.98;37.51;93562.19;5003029;28;20042;-77
2023/03/21 10:31:28;;;;;;;20.50;11.55;;;;;;;13.38;36.87;93538.25;5009020;28;20041;-77
2023/03/21 10:34:00;;;;;;;17.02;10.02;;;;;;;13.56;35.48;93534.97;5010426;28;20075;-77
2023/03/21 10:36:29;;;;;;;16.35;10.75;;;;;;;13.02;36.94;93533.69;4991708;28;20033;-76
2023/03/21 10:39:06;;;;;;;16.77;9.52;;;;;;;13.56;35.68;93561.69;5011283;28;20100;-77
2023/03/21 10:41:32;;;;;;;20.35;10.45;;;;;;;13.54;36.19;93552.47;4992800;28;21185;-76
2023/03/21 10:44:17;;;;;;;17.17;10.93;;;;;;;12.96;36.74;93535.81;4990873;28;20040;-77
2023/03/21 10:46:55;;;;;;;18.52;12.30;;;;;;;12.85;36.94;93564.84;4992240;28;20577;-76
2023/03/21 10:49:21;;;;;;;19.73;12.23;;;;;;;13.13;36.99;93548.16;5009267;28;20120;-77
2023/03/21 10:51:51;;;;;;;25.08;12.05;;;;;;;12.99;37.07;93553.06;5008865;28;20492;-76
2023/03/21 10:54:23;;;;;;;18.30;11.45;;;;;;;13.21;36.31;93526.69;5007114;28;20077;-76
2023/03/21 10:57:07;;;;;;;16.65;11.00;;;;;;;13.20;36.86;93524.38;5010726;28;20039;-78
2023/03/21 10:59:42;;;;;;;23.25;10.55;;;;;;;13.39;36.65;93548.59;5009206;28;20272;-77
2023/03/21 11:02:18;;;;;;;16.77;10.63;;;;;;;13.35;36.73;93534.34;5008493;28;20492;-78
2023/03/21 11:04:45;;;;;;;20.20;11.30;;;;;;;13.75;35.52;93537.84;5007916;28;20038;-77
2023/03/21 11:07:13;;;;;;;24.67;11.70;;;;;;;13.45;35.70;93504.47;5007810;28;20587;-77
2023/03/21 11:09:59;;;;;;;14.15;10.40;;;;;;;13.84;35.81;93513.63;5011072;28;20025;-76
2023/03/21 11:12:47;;;;;;;17.15;11.25;;;;;;;13.67;34.98;93513.94;5010406;28;20025;-77
2023/03/21 11:15:30;;;;;;;18.48;9.27;;;;;;;14.02;34.86;93535.53;4991304;28;20827;-77
2023/03/21 11:17:57;;;;;;;13.23;8.85;;;;;;;13.72;34.82;93538.53;4991729;28;20537;-77
2023/03/21 11:20:23;;;;;;;19.08;8.85;;;;;;;13.41;35.23;93535.66;4992037;28;20035;-77
2023/03/21 11:22:53;;;;;;;14.02;8.50;;;;;;;13.30;35.46;93527.31;4986952;28;20048;-76
2023/03/21 11:25:36;;;;;;;14.00;8.60;;;;;;;13.71;35.13;93526.28;4999531;28;20494;-77
2023/03/21 11:28:11;;;;;;;27.30;11.23;;;;;;;13.63;35.09;93524.53;4999595;28;20041;-77
2023/03/21 11:30:47;;;;;;;15.70;10.02;;;;;;;14.11;34.86;93496.81;4993991;28;20025;-77
2023/03/21 11:33:13;;;;;;;16.65;9.93;;;;;;;13.92;34.86;93509.28;5009108;28;20022;-77
2023/03/21 11:35:38;;;;;;;11.30;8.23;;;;;;;13.96;34.37;93500.22;4987905;28;20504;-77
2023/03/21 11:38:06;;;;;;;12.10;7.88;;;;;;;13.56;34.25;93470.84;5005428;28;20075;-77